Peterboro, New York
Current Conditions -  °F | °C
As of 7:14 AM on Thursday 18 Dec 2014 (Local Time) from KRME Reporting Station
Light Snow Light Snow  
Wind Chill: 19°   Ceiling: 2100
Heat Index: 30°   Visibility: 3mi
Dew Point: 28°   Wind: 15mph
Humidity: 92%   Direction: 270°W
Pressure: 29.97"   Gusts: NA
Location:  42.97°N, 75.69°W
Report Text: KRME 181214Z 27013KT 3SM -SN BR SCT011 OVC021 M01/M02 A2997 RMK AO2 P0000 T10111022
Loading
Personal Weather Stations






























Interactive Weather Map New forecast layout! Learn more

10-Day Weather Forecast

Advertisements
Track Severe Weather on mobile